American Princess — WDB6512 — position and weather

sailwx.info

Track history (hours):
 
Tides and Currents Weather Stations Pressure Air Temp Water Temp Dewpoint Dewpoint Depression Visibility Wind Speed Wind Dir Waves Ship Positions

American Princess

Owner: T.W.F.M. Ferry Inc., Neponsit, NY. More information available from US FCC via Universal Licensing System and Coast Guard Vessel Documentation Center.

Last reported at 2017-Nov-26 21:21 UTC. Time now 2017-Dec-17 23:33 UTC.
Position N 40°34' W 073°54'.
Warning: this ship's position is 21 days out of date.

MMSI: 366854860.

Date/timePositionNaut miles runAvg speedWind from/ knotsBaromVisibWave heightAir tempDewpointWater temp
2017-Nov-26 21:21N 40°34' W 073°54'1 3.2
2017-Nov-26 20:59N 40°33' W 073°54'4 1.2
2017-Nov-26 17:52N 40°34' W 073°49'613.0
2017-Nov-26 17:26N 40°33' W 073°57'3 7.0
2017-Nov-26 16:59N 40°34' W 073°53'0 0.0
2017-Nov-24 21:28N 40°34' W 073°53'2 4.7
2017-Nov-24 21:00N 40°33' W 073°55'2 0.8
2017-Nov-24 17:41N 40°33' W 073°52'314.1
2017-Nov-24 17:29N 40°32' W 073°56'3 5.3
2017-Nov-24 16:59N 40°34' W 073°53'0 0.0
2017-Nov-24 16:30N 40°34' W 073°53'  
Track history (hours):
 
Tides and Currents Weather Stations Pressure Air Temp Water Temp Dewpoint Dewpoint Depression Visibility Wind Speed Wind Dir Waves Ship Positions

American Princess

Owner: T.W.F.M. Ferry Inc., Neponsit, NY. More information available from US FCC via Universal Licensing System and Coast Guard Vessel Documentation Center.

Last reported at 2017-Nov-26 21:21 UTC. Time now 2017-Dec-17 23:33 UTC.
Position N 40°34' W 073°54'.
Warning: this ship's position is 21 days out of date.

MMSI: 366854860.

Date/timePositionNaut miles runAvg speedWind from/ knotsBaromVisibWave heightAir tempDewpointWater temp
2017-Nov-26 21:21N 40°34' W 073°54'1 3.2
2017-Nov-26 20:59N 40°33' W 073°54'4 1.2
2017-Nov-26 17:52N 40°34' W 073°49'613.0
2017-Nov-26 17:26N 40°33' W 073°57'3 7.0
2017-Nov-26 16:59N 40°34' W 073°53'0 0.0
2017-Nov-24 21:28N 40°34' W 073°53'2 4.7
2017-Nov-24 21:00N 40°33' W 073°55'2 0.8
2017-Nov-24 17:41N 40°33' W 073°52'314.1
2017-Nov-24 17:29N 40°32' W 073°56'3 5.3
2017-Nov-24 16:59N 40°34' W 073°53'0 0.0
2017-Nov-24 16:30N 40°34' W 073°53'  

Dump ship's entire track history